Aérodrome :
LOGIN :

S'inscrire | Disclaimer

   EN    FR    IT 

 










Légende :    VFR   VFR Marginal   IFR   IFR Intensif   IFR Très Intensif
Visi : 
Plafond : 
>= 8 km
>= 3000ft
5 à 8 km
1000 à 3000 ft
1500m à 5 km
500 à 1000 ft
800 à 1500m
200 à 500 ft
< 800m
< 200 ft
Symboles :   Orages  Brouillard  Fortes neiges  Fortes précipitations  Vent > 20 kt
SIGMETs :   Divers  Orages  Givrage  Turbulence  Onde Orograph.  Cendres Volcan.







- Altitude de l'aérodrome : 776 ft
- Code IATA : RMS


ETAR - Ramstein Air Base

DERNIER METAR :
  • 180441Z 00000KT 0800 R26/0500VP1500 FZFG CLR M07/M07 A3030 RMK AO2A SLP282 $

METARs EXPIRÉS :
  • 180426Z AUTO 00000KT 0600 R26/0350V0450 M CLR M06/M07 A3030 RMK AO2 SLP281 $
  • 180356Z 00000KT 0600 R26/0350V0450 FZFG VV001 M05/M05 A3030 RMK AO2A SLP281 T10541055 $
  • 180327Z 00000KT 0400 R26/0300 FZFG VV001 M05/M05 A3029 RMK AO2A FZDZE0258 SLP277 $
  • 180308Z 00000KT 0600 R26/0350V0400 FZFG VV001 M05/M05 A3030 RMK AO2A FZDZE0258 CIG 000 RWY08 SLP281 $
  • 180258Z 00000KT 0600 R26/0350V0400 FZFG VV001 M05/M05 A3030 RMK AO2A FZDZE58 CIG 000 RWY08 SLP281 $
  • 180256Z 00000KT 0600 R26/0350V0450 -FZDZ VV001 M05/M05 A3030 RMK AO2A FZDZB0159E03FZDZB51 CIG 000 RWY08 SLP281 T10471048 51008 $
  • 180245Z 00000KT 0600 R26/0350V0450 FZFG VV001 M05/M05 A3029 RMK AO2A FZDZB0159E03 SLP277 $
  • 180234Z 00000KT 0400 R26/0250V0350 FZFG VV001 M05/M05 A3029 RMK AO2A FZDZB0159E03 SLP277 $
  • 180203Z 00000KT 0600 R26/0400V0600 FZFG VV001 M05/M05 A3029 RMK AO2A FZDZB0159E03 CIG 000 RWY08 SLP277 $
  • 180156Z 00000KT 0400 R26/0350V0450 FZFG VV001 M04/M05 A3029 RMK AO2A FZDZB41E43FZDZB46E47 SLP276 T10451046 $

TAF TAF ETAR
Valide du 18 à 02h jusqu'au 19 à 08h UTC


180200Z 1802/1908 VRB06KT 0800 FZFG VV001 610013 QNH3025INS
TEMPO 1805/1809 3200 BR BKN015
BECMG 1808/1809 VRB06KT 9999 NSW FEW030 QNH3025INS
BECMG 1818/1819 VRB06KT 6000 BR BKN020 QNH3023INS
TEMPO 1819/1821 3200 BR
BECMG 1820/1821 VRB06KT 2400 BR SCT005 QNH3011INS TX01/1813Z TNM05/1802Z
Pas de NOTAMs connus pour ce terrain.



MET'MAP, la Météo Aéronautique d'un coup d'oeil ! - Copyright ORBIFLY Décembre 2007 - Disclaimer

ORBIFLY MET'MAP TEAM :

Programmation & Développement : Alexandra Zaïnal
Conception & Développement : Baudouin d'Aumeries
Co-Programmation & Développement : Marc-Olivier Méhu
Soutien technique & logistique : Manuel Goepfert

Contact : metmap@orbifly.com




SOURCES & CREDITS :

   NOAA